Time;durP1;ratioP1;P1;durP2;ratioP2;P2;SDS_P1;SDS_P2;PMS_P1;PMS_P2;Temp;Humidity;BMP_temperature;BMP_pressure;BME280_temperature;BME280_humidity;BME280_pressure;Samples;Min_cycle;Max_cycle;Signal;HPM_P1;HPM_P2
2023/10/10 00:08:20;;;;;;;14.88;1.85;;;21.20;63.40;;;;;;25585222;23;20437;-58
2023/10/10 00:18:22;;;;;;;9.15;2.00;;;20.80;62.40;;;;;;25591921;23;20012;-61
2023/10/10 00:28:27;;;;;;;19.42;2.20;;;20.50;64.20;;;;;;25592286;23;20012;-55
2023/10/10 00:38:30;;;;;;;13.52;1.95;;;20.00;63.10;;;;;;25334223;23;20080;-54
2023/10/10 00:48:34;;;;;;;8.70;1.90;;;19.80;64.90;;;;;;25310051;23;20066;-60
2023/10/10 00:58:37;;;;;;;13.27;1.85;;;18.80;70.10;;;;;;25333352;23;20119;-60
2023/10/10 01:09:20;;;;;;;11.23;1.98;;;17.70;73.70;;;;;;25354112;23;20009;-52
2023/10/10 01:19:18;;;;;;;8.20;1.80;;;17.10;77.50;;;;;;25466848;23;20065;-58
2023/10/10 01:29:23;;;;;;;16.15;1.73;;;16.50;79.80;;;;;;25464719;23;20013;-54
2023/10/10 01:39:51;;;;;;;13.18;2.20;;;16.10;81.10;;;;;;25506934;23;20029;-59
2023/10/10 01:49:58;;;;;;;6.20;1.53;;;15.90;79.70;;;;;;25459660;23;20017;-60
2023/10/10 02:00:11;;;;;;;11.38;1.48;;;15.60;79.80;;;;;;25562298;23;20453;-54
2023/10/10 02:10:13;;;;;;;7.85;1.58;;;16.00;77.30;;;;;;25630027;23;20013;-59
2023/10/10 02:21:05;;;;;;;16.23;2.28;;;15.50;81.00;;;;;;25587637;23;20075;-49
2023/10/10 02:30:45;;;;;;;7.47;1.30;;;14.90;83.20;;;;;;25572332;23;20348;-51
2023/10/10 02:40:51;;;;;;;13.55;2.17;;;14.50;84.60;;;;;;25602139;23;20543;-60
2023/10/10 02:50:53;;;;;;;7.78;1.52;;;14.10;84.70;;;;;;25598579;23;20032;-60
2023/10/10 03:00:57;;;;;;;13.90;2.00;;;14.20;84.70;;;;;;25586150;23;20044;-49
2023/10/10 03:11:05;;;;;;;9.68;1.95;;;13.90;85.10;;;;;;25561695;23;20005;-60
2023/10/10 03:21:18;;;;;;;9.73;1.60;;;13.70;85.80;;;;;;25626904;23;20005;-59
2023/10/10 03:31:31;;;;;;;9.65;1.40;;;13.80;84.30;;;;;;25626319;23;20013;-59
2023/10/10 05:24:43;;;;;;;12.25;1.98;;;13.50;85.70;;;;;;25211118;23;20069;-59
2023/10/10 05:34:45;;;;;;;10.93;2.03;;;13.60;85.90;;;;;;25211229;23;20039;-59
2023/10/10 05:44:49;;;;;;;12.35;1.92;;;13.90;83.50;;;;;;25210410;23;20033;-59
2023/10/10 05:54:51;;;;;;;25.05;2.50;;;13.70;86.40;;;;;;25256877;23;20088;-54
2023/10/10 06:04:53;;;;;;;14.68;2.20;;;14.00;87.30;;;;;;25464680;23;20013;-58
2023/10/10 06:14:55;;;;;;;12.95;1.65;;;13.80;88.10;;;;;;25463642;23;20010;-53
2023/10/10 06:24:58;;;;;;;7.75;1.48;;;13.80;88.10;;;;;;25465468;23;20009;-53
2023/10/10 06:35:36;;;;;;;13.60;2.05;;;14.40;86.60;;;;;;25463466;23;20009;-59
2023/10/10 06:45:34;;;;;;;12.90;1.67;;;14.80;88.00;;;;;;25457836;23;20067;-59
2023/10/10 06:55:36;;;;;;;13.17;1.90;;;15.00;89.40;;;;;;25536867;23;20024;-59
2023/10/10 07:05:42;;;;;;;9.52;1.52;;;15.20;90.70;;;;;;25587349;23;20040;-49
2023/10/10 07:15:51;;;;;;;11.32;2.22;;;15.50;90.90;;;;;;25626509;23;20005;-52
2023/10/10 07:25:59;;;;;;;14.27;2.30;;;16.60;82.40;;;;;;25625939;23;20001;-60
2023/10/10 07:36:01;;;;;;;8.60;1.83;;;17.70;83.70;;;;;;25625890;23;20294;-61
2023/10/10 07:46:18;;;;;;;12.45;2.30;;;18.60;83.10;;;;;;25584417;23;20055;-61
2023/10/10 07:56:20;;;;;;;11.65;1.73;;;19.30;81.90;;;;;;25603582;23;20448;-61
2023/10/10 08:06:21;;;;;;;12.15;2.42;;;20.10;84.50;;;;;;25557921;23;20010;-57
2023/10/10 08:16:29;;;;;;;10.77;2.40;;;20.80;83.90;;;;;;25584394;23;20009;-50
2023/10/10 08:26:38;;;;;;;17.00;2.10;;;21.10;80.90;;;;;;25625063;23;20045;-63
2023/10/10 08:36:43;;;;;;;10.80;1.55;;;21.10;85.50;;;;;;25628190;23;20075;-62
2023/10/10 08:46:46;;;;;;;14.75;2.30;;;22.10;80.10;;;;;;25589196;23;20436;-62
2023/10/10 08:57:00;;;;;;;9.25;2.00;;;22.90;75.10;;;;;;25590800;23;20491;-61
2023/10/10 09:07:08;;;;;;;14.32;2.58;;;22.90;71.10;;;;;;25631297;23;20016;-61
2023/10/10 09:17:28;;;;;;;12.50;1.77;;;23.10;71.20;;;;;;25630989;23;20005;-61
2023/10/10 09:27:35;;;;;;;11.45;2.47;;;23.70;75.00;;;;;;25631415;23;20001;-61
2023/10/10 09:37:41;;;;;;;;;;;24.80;79.50;;;;;;25630891;23;20009;-61
2023/10/10 09:47:52;;;;;;;12.95;2.08;;;25.40;77.50;;;;;;25589376;23;19908;-62
2023/10/10 09:58:00;;;;;;;9.27;2.20;;;25.90;77.50;;;;;;25601044;23;20024;-61
2023/10/10 10:08:21;;;;;;;12.13;2.40;;;26.20;76.10;;;;;;25628845;23;20380;-61
2023/10/10 10:18:27;;;;;;;10.30;2.03;;;26.70;76.80;;;;;;25628412;23;20059;-62
2023/10/10 10:28:29;;;;;;;13.13;2.13;;;26.90;76.50;;;;;;25560057;23;20332;-61
2023/10/10 10:38:31;;;;;;;8.32;2.40;;;26.90;70.10;;;;;;25586857;23;20059;-62
2023/10/10 10:48:35;;;;;;;11.90;2.92;;;26.50;72.20;;;;;;25586313;23;20012;-49
2023/10/10 10:59:11;;;;;;;15.52;2.75;;;27.20;72.80;;;;;;25584373;23;20017;-64
2023/10/10 11:09:23;;;;;;;9.20;2.70;;;27.30;74.40;;;;;;25586635;23;20344;-63
2023/10/10 11:29:50;;;;;;;10.57;3.60;;;26.10;81.00;;;;;;25626170;23;20052;-62
2023/10/10 11:50:43;;;;;;;17.17;2.92;;;27.00;79.70;;;;;;25625627;23;20009;-62
2023/10/10 12:00:59;;;;;;;12.95;3.47;;;27.20;79.70;;;;;;25585366;23;20009;-63
2023/10/10 12:11:12;;;;;;;12.20;3.53;;;27.40;82.00;;;;;;25628761;23;20008;-63
2023/10/10 12:21:14;;;;;;;15.38;3.60;;;27.20;83.80;;;;;;25633065;23;20005;-62
2023/10/10 12:31:16;;;;;;;11.80;4.35;;;25.90;83.10;;;;;;25591670;23;20016;-64
2023/10/10 12:41:21;;;;;;;16.95;5.00;;;25.70;85.30;;;;;;25593688;23;20387;-63
2023/10/10 12:51:23;;;;;;;14.63;6.95;;;25.70;86.00;;;;;;25591117;23;20017;-63
2023/10/10 13:01:27;;;;;;;13.73;5.72;;;25.60;84.80;;;;;;25632731;23;20009;-64
2023/10/10 13:11:43;;;;;;;14.85;5.32;;;25.20;89.80;;;;;;25589986;23;20063;-64
2023/10/10 13:21:52;;;;;;;15.23;4.33;;;24.50;90.70;;;;;;25630778;23;20002;-63
2023/10/10 13:31:54;;;;;;;10.23;4.07;;;23.30;92.80;;;;;;25630145;23;20024;-62
2023/10/10 13:41:56;;;;;;;18.00;5.72;;;22.00;93.80;;;;;;25588440;23;20068;-62
2023/10/10 13:51:59;;;;;;;17.15;5.20;;;21.10;92.80;;;;;;25588438;23;20063;-62
2023/10/10 14:02:03;;;;;;;17.60;6.10;;;21.20;95.90;;;;;;25587743;23;20013;-62
2023/10/10 14:12:08;;;;;;;13.77;5.85;;;21.30;95.60;;;;;;25587456;23;20082;-62
2023/10/10 14:22:12;;;;;;;20.33;5.95;;;21.00;96.70;;;;;;25587578;23;20063;-62
2023/10/10 14:32:14;;;;;;;14.13;6.03;;;20.60;95.10;;;;;;25586064;23;20028;-62
2023/10/10 14:42:16;;;;;;;13.98;6.43;;;20.50;97.50;;;;;;25585833;23;20012;-61
2023/10/10 14:52:19;;;;;;;21.98;6.00;;;20.20;96.80;;;;;;25586341;23;20009;-62
2023/10/10 15:02:21;;;;;;;12.43;4.90;;;19.90;97.90;;;;;;25585380;23;20013;-62
2023/10/10 15:12:25;;;;;;;15.00;6.57;;;19.60;99.30;;;;;;25584932;23;20028;-62
2023/10/10 15:22:27;;;;;;;13.93;5.35;;;19.40;99.90;;;;;;25585024;23;20372;-61
2023/10/10 15:32:34;;;;;;;11.00;4.13;;;19.40;99.90;;;;;;25585386;23;20031;-55
2023/10/10 15:42:40;;;;;;;13.90;4.40;;;19.20;96.70;;;;;;25627468;23;20004;-61
2023/10/10 15:52:42;;;;;;;13.55;5.13;;;19.30;97.50;;;;;;25593141;23;20083;-61
2023/10/10 16:02:45;;;;;;;17.17;7.13;;;18.70;99.00;;;;;;25592883;23;20470;-61
2023/10/10 16:12:47;;;;;;;15.32;5.75;;;18.30;99.90;;;;;;25592732;23;20031;-53
2023/10/10 16:22:49;;;;;;;11.68;4.15;;;17.80;99.90;;;;;;25592191;23;20005;-60
2023/10/10 16:32:50;;;;;;;12.60;5.40;;;17.60;96.10;;;;;;25592128;23;20396;-61
2023/10/10 16:42:55;;;;;;;14.00;5.53;;;17.30;99.90;;;;;;25591903;23;20009;-52
2023/10/10 16:52:57;;;;;;;19.55;5.88;;;16.60;99.90;;;;;;25591177;23;20064;-60
2023/10/10 17:03:00;;;;;;;21.85;9.10;;;16.20;99.90;;;;;;25591273;23;20059;-60
2023/10/10 17:13:02;;;;;;;20.38;7.22;;;16.10;99.80;;;;;;25590760;23;20024;-60
2023/10/10 17:23:04;;;;;;;16.88;8.07;;;15.80;99.90;;;;;;25590491;23;20380;-60
2023/10/10 17:33:05;;;;;;;22.65;7.80;;;15.40;99.90;;;;;;25589915;23;20039;-60
2023/10/10 17:43:09;;;;;;;19.42;6.97;;;15.40;99.90;;;;;;25589340;23;20005;-60
2023/10/10 17:53:14;;;;;;;20.50;6.70;;;15.20;99.90;;;;;;25591663;23;20444;-60
2023/10/10 18:03:17;;;;;;;8.82;2.65;;;15.00;99.90;;;;;;25588416;23;20063;-60
2023/10/10 18:13:18;;;;;;;10.50;3.05;;;14.90;97.40;;;;;;25588750;23;20005;-60
2023/10/10 18:23:20;;;;;;;11.35;3.22;;;14.70;98.30;;;;;;25587848;23;20005;-53
2023/10/10 18:33:26;;;;;;;15.52;3.10;;;14.50;98.70;;;;;;25588212;23;20001;-59
2023/10/10 18:43:28;;;;;;;14.52;3.55;;;14.20;97.80;;;;;;25602814;23;20028;-54
2023/10/10 18:53:30;;;;;;;14.75;5.18;;;14.00;98.20;;;;;;25587502;23;20017;-60
2023/10/10 19:03:32;;;;;;;11.35;4.00;;;14.20;99.50;;;;;;25557194;23;20040;-52
2023/10/10 19:13:35;;;;;;;11.82;3.30;;;14.20;99.80;;;;;;25586968;23;20055;-60
2023/10/10 19:23:37;;;;;;;12.48;3.90;;;14.00;98.90;;;;;;25560846;23;20009;-59
2023/10/10 19:33:40;;;;;;;10.32;3.45;;;13.70;99.90;;;;;;25587037;23;20002;-54
2023/10/10 19:43:42;;;;;;;11.70;3.40;;;13.30;99.90;;;;;;25586293;23;20310;-59
2023/10/10 19:53:45;;;;;;;9.48;2.78;;;13.20;99.90;;;;;;25587084;23;20016;-52
2023/10/10 20:03:46;;;;;;;8.13;2.70;;;13.00;99.90;;;;;;25586169;23;20005;-59
2023/10/10 20:13:48;;;;;;;12.55;2.70;;;13.10;99.40;;;;;;25586170;23;20023;-60
2023/10/10 20:23:50;;;;;;;9.27;3.13;;;12.90;99.40;;;;;;25586132;23;20420;-59
2023/10/10 20:33:52;;;;;;;9.68;2.50;;;12.90;99.90;;;;;;25591648;23;20001;-59
2023/10/10 20:43:53;;;;;;;10.60;2.53;;;13.20;99.00;;;;;;25591248;23;20005;-59
2023/10/10 20:53:55;;;;;;;9.38;2.38;;;13.00;98.20;;;;;;25592778;23;20016;-54
2023/10/10 21:03:59;;;;;;;12.13;2.67;;;13.10;98.50;;;;;;25592591;23;20421;-59
2023/10/10 21:14:02;;;;;;;9.93;2.28;;;12.80;99.40;;;;;;25592127;23;20001;-60
2023/10/10 21:24:06;;;;;;;11.25;2.20;;;12.50;99.90;;;;;;25565502;23;20258;-59
2023/10/10 21:34:10;;;;;;;5.93;1.88;;;12.50;99.20;;;;;;25591025;23;20012;-59
2023/10/10 21:44:12;;;;;;;9.23;1.98;;;12.60;99.60;;;;;;25592017;23;20012;-60
2023/10/10 21:54:13;;;;;;;16.30;2.10;;;12.60;98.70;;;;;;25590670;23;20071;-59
2023/10/10 22:04:15;;;;;;;9.32;1.88;;;12.90;97.70;;;;;;25590120;23;20314;-59
2023/10/10 22:14:17;;;;;;;8.68;2.15;;;13.00;97.60;;;;;;25590023;23;20511;-53
2023/10/10 22:24:19;;;;;;;9.32;2.35;;;12.80;97.70;;;;;;25589316;23;20019;-59
2023/10/10 22:34:20;;;;;;;14.65;2.22;;;12.70;98.10;;;;;;25589073;23;20005;-59
2023/10/10 22:44:22;;;;;;;9.57;1.67;;;12.50;97.70;;;;;;25562297;23;20059;-59
2023/10/10 22:54:24;;;;;;;7.45;1.80;;;12.40;97.60;;;;;;25588117;23;20552;-59
2023/10/10 23:04:26;;;;;;;12.85;2.33;;;12.10;98.00;;;;;;25587904;23;20051;-59
2023/10/10 23:14:33;;;;;;;11.70;1.88;;;12.20;98.40;;;;;;25587470;23;20503;-59
2023/10/10 23:24:35;;;;;;;11.10;2.13;;;12.10;98.10;;;;;;25628501;23;20001;-52
2023/10/10 23:34:37;;;;;;;15.05;2.42;;;12.20;98.00;;;;;;25588590;23;20007;-50
2023/10/10 23:44:41;;;;;;;11.00;2.35;;;12.10;98.50;;;;;;25586885;23;20012;-53
2023/10/10 23:54:45;;;;;;;12.20;2.72;;;11.90;99.30;;;;;;25587187;23;20118;-54
